Time;durP1;ratioP1;P1;durP2;ratioP2;P2;SDS_P1;SDS_P2;PMS_P1;PMS_P2;Temp;Humidity;BMP_temperature;BMP_pressure;BME280_temperature;BME280_humidity;BME280_pressure;Samples;Min_cycle;Max_cycle;Signal;HPM_P1;HPM_P2
2021/01/16 00:01:05;;;;;;;15.60;10.70;;;3.50;99.90;;;;;;5084374;28;20462;-72
2021/01/16 00:03:31;;;;;;;17.40;10.83;;;3.50;99.90;;;;;;5085757;28;20466;-72
2021/01/16 00:06:00;;;;;;;17.17;9.93;;;3.50;99.90;;;;;;5076253;28;20467;-73
2021/01/16 00:08:27;;;;;;;13.80;9.60;;;3.50;99.90;;;;;;5083917;28;20806;-72
2021/01/16 00:10:55;;;;;;;15.10;9.70;;;3.50;99.90;;;;;;5081258;28;20431;-74
2021/01/16 00:13:23;;;;;;;15.00;10.70;;;3.50;99.90;;;;;;5086442;28;20441;-73
2021/01/16 00:15:49;;;;;;;18.03;11.70;;;3.50;99.90;;;;;;5095332;28;20470;-73
2021/01/16 00:18:18;;;;;;;17.90;10.97;;;3.50;99.90;;;;;;5095223;28;20459;-73
2021/01/16 00:20:51;;;;;;;20.60;11.63;;;3.50;99.90;;;;;;5095273;28;20174;-73
2021/01/16 00:23:17;;;;;;;18.50;11.03;;;3.40;99.90;;;;;;5095061;28;20421;-72
2021/01/16 00:25:43;;;;;;;17.67;10.70;;;3.40;99.90;;;;;;5095203;28;20990;-72
2021/01/16 00:28:17;;;;;;;13.77;10.00;;;3.40;99.90;;;;;;5095024;28;20461;-73
2021/01/16 00:30:44;;;;;;;15.00;10.40;;;3.40;99.90;;;;;;5095048;28;20455;-72
2021/01/16 00:33:25;;;;;;;19.33;10.17;;;3.40;99.90;;;;;;5094213;28;20825;-72
2021/01/16 00:35:51;;;;;;;16.63;10.53;;;3.40;99.90;;;;;;5094901;28;20444;-72
2021/01/16 00:38:18;;;;;;;14.80;9.80;;;3.40;99.90;;;;;;5094694;28;20428;-74
2021/01/16 00:40:44;;;;;;;17.58;12.00;;;3.40;99.90;;;;;;5094343;28;20441;-72
2021/01/16 00:43:12;;;;;;;15.40;10.40;;;3.40;99.90;;;;;;5094654;28;20188;-75
2021/01/16 00:45:38;;;;;;;14.93;10.17;;;3.40;99.90;;;;;;5094544;28;20429;-73
2021/01/16 00:48:12;;;;;;;19.73;10.40;;;3.40;99.90;;;;;;5094583;28;20920;-73
2021/01/16 00:50:38;;;;;;;18.60;10.87;;;3.40;99.90;;;;;;5094571;28;20428;-72
2021/01/16 00:53:03;;;;;;;19.03;11.60;;;3.40;99.90;;;;;;5094897;28;20928;-71
2021/01/16 00:55:29;;;;;;;15.60;9.93;;;3.40;99.90;;;;;;5094603;28;20429;-68
2021/01/16 00:57:55;;;;;;;18.00;10.40;;;3.40;99.90;;;;;;5088370;28;20694;-70
2021/01/16 01:00:26;;;;;;;18.90;9.90;;;3.40;99.90;;;;;;5084824;28;20185;-69
2021/01/16 01:02:52;;;;;;;18.13;10.40;;;3.40;99.90;;;;;;5084654;28;20204;-71
2021/01/16 01:05:20;;;;;;;20.60;8.80;;;3.40;99.90;;;;;;5094206;28;20927;-73
2021/01/16 01:07:50;;;;;;;16.70;9.60;;;3.40;99.90;;;;;;5094296;28;20414;-75
2021/01/16 01:10:19;;;;;;;18.43;11.40;;;3.40;99.90;;;;;;5094274;28;20447;-74
2021/01/16 01:12:45;;;;;;;14.20;10.00;;;3.40;99.90;;;;;;5094131;28;20419;-75
2021/01/16 01:15:11;;;;;;;14.63;9.67;;;3.40;99.90;;;;;;5094231;28;20450;-75
2021/01/16 01:17:36;;;;;;;14.70;9.90;;;3.40;99.90;;;;;;5094058;28;20183;-75
2021/01/16 01:20:04;;;;;;;16.23;10.77;;;3.30;99.90;;;;;;5094085;28;20208;-75
2021/01/16 01:22:34;;;;;;;17.70;10.07;;;3.30;99.90;;;;;;5090960;28;20178;-76
2021/01/16 01:25:00;;;;;;;15.07;10.37;;;3.30;99.90;;;;;;5073636;28;20799;-66
2021/01/16 01:27:26;;;;;;;14.47;9.83;;;3.30;99.90;;;;;;5079160;28;20439;-67
2021/01/16 01:29:51;;;;;;;14.20;9.60;;;3.30;99.90;;;;;;5084039;28;20488;-67
2021/01/16 01:32:17;;;;;;;20.77;11.00;;;3.30;99.90;;;;;;5081849;28;20322;-67
2021/01/16 01:34:42;;;;;;;14.30;10.30;;;3.30;99.90;;;;;;5082322;28;20171;-67
2021/01/16 01:37:08;;;;;;;21.07;11.10;;;3.30;99.90;;;;;;5082924;28;20168;-68
2021/01/16 01:39:33;;;;;;;20.97;10.87;;;3.30;99.90;;;;;;5080327;28;20173;-67
2021/01/16 01:41:59;;;;;;;16.03;9.90;;;3.30;99.90;;;;;;5074780;28;20185;-67
2021/01/16 01:44:24;;;;;;;16.57;11.03;;;3.30;99.90;;;;;;5071328;28;20659;-67
2021/01/16 01:46:50;;;;;;;14.80;10.43;;;3.30;99.90;;;;;;5071931;28;20270;-67
2021/01/16 01:49:16;;;;;;;17.30;10.63;;;3.30;99.90;;;;;;5071546;28;20277;-67
2021/01/16 01:51:43;;;;;;;18.43;10.63;;;3.30;99.90;;;;;;5071923;28;20188;-76
2021/01/16 01:54:10;;;;;;;17.37;10.33;;;3.30;99.90;;;;;;5072120;28;20464;-75
2021/01/16 01:56:38;;;;;;;17.57;10.10;;;3.30;99.90;;;;;;5070475;28;20428;-75
2021/01/16 01:59:06;;;;;;;15.73;9.93;;;3.30;99.90;;;;;;5072126;28;20444;-74
2021/01/16 02:01:38;;;;;;;16.03;10.50;;;3.30;99.90;;;;;;5072222;28;20484;-75
2021/01/16 02:04:05;;;;;;;15.07;9.00;;;3.20;99.90;;;;;;5072178;28;20427;-75
2021/01/16 02:06:30;;;;;;;14.60;9.53;;;3.20;99.90;;;;;;5072162;28;20419;-75
2021/01/16 02:08:56;;;;;;;21.20;12.23;;;3.30;99.90;;;;;;5071854;28;20976;-75
2021/01/16 02:11:22;;;;;;;19.50;10.60;;;3.20;99.90;;;;;;5072062;28;20694;-75
2021/01/16 02:13:48;;;;;;;18.13;10.00;;;3.20;99.90;;;;;;5072038;28;20795;-75
2021/01/16 02:16:43;;;;;;;17.33;10.30;;;3.30;99.90;;;;;;5071986;28;20887;-75
2021/01/16 02:19:12;;;;;;;23.73;12.60;;;3.30;99.90;;;;;;5072025;28;20186;-75
2021/01/16 02:21:41;;;;;;;24.50;12.70;;;3.30;99.90;;;;;;5071488;28;20526;-74
2021/01/16 06:32:25;;;;;;;19.43;10.97;;;3.20;99.90;;;;;;5193004;23;545644;-73
2021/01/16 06:35:07;;;;;;;23.57;11.70;;;3.20;99.90;;;;;;5073450;28;20425;-72
2021/01/16 06:37:32;;;;;;;18.00;9.63;;;3.20;99.90;;;;;;5073404;28;20512;-72
2021/01/16 06:39:58;;;;;;;12.20;9.10;;;3.10;99.90;;;;;;5073250;28;20455;-73
2021/01/16 06:42:28;;;;;;;21.70;10.70;;;3.20;99.90;;;;;;5073328;28;20180;-73
2021/01/16 06:45:10;;;;;;;19.47;10.67;;;3.30;99.90;;;;;;5073223;28;20462;-73
2021/01/16 06:47:39;;;;;;;15.47;9.00;;;3.40;99.90;;;;;;5073281;28;20456;-65
2021/01/16 06:50:07;;;;;;;13.20;8.13;;;3.50;99.90;;;;;;5073083;28;20471;-66
2021/01/16 06:52:40;;;;;;;15.73;8.80;;;3.60;99.90;;;;;;5073334;28;20441;-66
2021/01/16 06:55:07;;;;;;;14.27;8.60;;;3.50;99.90;;;;;;5073186;28;20412;-66
2021/01/16 06:57:36;;;;;;;16.20;11.27;;;3.60;99.90;;;;;;5072269;28;20544;-65
2021/01/16 07:00:06;;;;;;;13.97;9.80;;;3.80;99.90;;;;;;5073034;28;20172;-74
2021/01/16 07:02:33;;;;;;;19.43;9.53;;;4.00;99.90;;;;;;5073232;28;20427;-73
2021/01/16 07:05:20;;;;;;;14.20;9.23;;;4.00;99.90;;;;;;5073097;28;20429;-73
2021/01/16 07:07:48;;;;;;;15.47;8.67;;;3.80;99.90;;;;;;5073213;28;20448;-68
2021/01/16 07:10:19;;;;;;;14.17;8.67;;;3.70;99.90;;;;;;5085201;22;20490;-67
2021/01/16 07:12:49;;;;;;;15.13;7.97;;;3.80;99.90;;;;;;5073135;28;20428;-67
2021/01/16 07:15:16;;;;;;;17.13;10.00;;;3.70;99.90;;;;;;5072875;28;20443;-67
2021/01/16 07:17:43;;;;;;;12.63;7.83;;;3.60;99.90;;;;;;5073002;28;20795;-67
2021/01/16 07:20:09;;;;;;;15.33;9.20;;;3.50;99.90;;;;;;5072918;28;20428;-67
2021/01/16 07:22:38;;;;;;;15.67;9.50;;;3.50;99.90;;;;;;5072990;28;20431;-67
2021/01/16 07:25:06;;;;;;;13.13;7.80;;;3.40;99.90;;;;;;5072883;28;21073;-68
2021/01/16 07:27:36;;;;;;;12.30;8.37;;;3.40;99.90;;;;;;5072905;28;20905;-68
2021/01/16 07:30:05;;;;;;;10.77;7.33;;;3.40;99.90;;;;;;5075174;28;20576;-68
2021/01/16 07:32:42;;;;;;;12.43;9.23;;;3.40;99.90;;;;;;5083368;28;20429;-68
2021/01/16 07:35:14;;;;;;;11.20;8.00;;;3.50;99.90;;;;;;5074045;28;20432;-68
2021/01/16 07:37:41;;;;;;;14.93;8.60;;;3.50;99.90;;;;;;5075307;28;20507;-67
2021/01/16 07:40:15;;;;;;;16.97;9.27;;;3.40;99.90;;;;;;5081184;28;20472;-67
2021/01/16 07:43:00;;;;;;;11.67;7.23;;;3.40;99.90;;;;;;5081529;28;20429;-68
2021/01/16 07:45:31;;;;;;;18.37;7.97;;;3.40;99.90;;;;;;5087169;28;20426;-68
2021/01/16 07:48:01;;;;;;;15.80;8.50;;;3.30;99.90;;;;;;5086312;28;20481;-68
2021/01/16 07:50:29;;;;;;;10.50;7.00;;;3.20;99.90;;;;;;5082277;28;20453;-67
2021/01/16 07:52:55;;;;;;;12.10;9.30;;;3.30;99.90;;;;;;5080745;28;20425;-67
2021/01/16 07:55:23;;;;;;;11.60;7.67;;;3.30;99.90;;;;;;5076389;28;20517;-68
2021/01/16 07:57:50;;;;;;;12.13;7.70;;;3.30;99.90;;;;;;5076208;28;20426;-68
2021/01/16 08:00:22;;;;;;;12.80;8.30;;;3.30;99.90;;;;;;5076167;28;20943;-67
2021/01/16 08:03:15;;;;;;;13.30;8.40;;;3.30;99.90;;;;;;5076216;28;20831;-68
2021/01/16 08:06:19;;;;;;;16.30;9.93;;;3.30;99.90;;;;;;5076012;28;20788;-68
2021/01/16 08:08:48;;;;;;;19.30;7.10;;;3.30;99.90;;;;;;5075432;28;20554;-68
2021/01/16 08:11:19;;;;;;;14.90;7.60;;;3.30;99.90;;;;;;5075941;28;20441;-67
2021/01/16 08:13:50;;;;;;;17.13;8.23;;;3.40;99.90;;;;;;5076044;28;20450;-67
2021/01/16 08:16:16;;;;;;;11.17;7.40;;;3.60;99.90;;;;;;5075873;28;20531;-67
2021/01/16 08:18:47;;;;;;;15.87;8.10;;;3.50;99.90;;;;;;5075994;28;20513;-68
2021/01/16 08:21:14;;;;;;;12.20;7.57;;;3.50;99.90;;;;;;5075785;28;20184;-68
2021/01/16 08:23:49;;;;;;;12.77;8.00;;;3.50;99.90;;;;;;5075748;28;20931;-68
2021/01/16 08:26:19;;;;;;;12.60;8.03;;;3.50;99.90;;;;;;5079781;28;20476;-68
2021/01/16 08:28:45;;;;;;;11.23;7.70;;;3.40;99.90;;;;;;5095913;28;20459;-68
2021/01/16 08:31:30;;;;;;;15.07;9.37;;;3.50;99.90;;;;;;5095739;28;20433;-68
2021/01/16 08:33:57;;;;;;;16.97;8.73;;;3.50;99.90;;;;;;5095088;28;20453;-68
2021/01/16 08:36:23;;;;;;;14.60;9.03;;;3.50;99.90;;;;;;5095809;28;20432;-68
2021/01/16 08:38:50;;;;;;;16.30;8.97;;;3.50;99.90;;;;;;5095784;28;20458;-67
2021/01/16 08:41:25;;;;;;;12.73;8.07;;;3.50;99.90;;;;;;5095655;28;20862;-67
2021/01/16 08:43:57;;;;;;;11.70;8.03;;;3.50;99.90;;;;;;5095602;28;20431;-68
2021/01/16 08:46:36;;;;;;;12.77;8.23;;;3.60;99.90;;;;;;5095599;28;20428;-67
2021/01/16 08:49:18;;;;;;;13.40;9.63;;;3.50;99.90;;;;;;5095264;28;20832;-67
2021/01/16 08:51:53;;;;;;;11.10;8.10;;;3.50;99.90;;;;;;5089399;28;20450;-67
2021/01/16 08:54:20;;;;;;;14.70;9.43;;;3.60;99.90;;;;;;5084072;28;20418;-67
2021/01/16 08:56:47;;;;;;;11.37;8.27;;;3.60;99.90;;;;;;5085806;28;20946;-67
2021/01/16 08:59:14;;;;;;;11.00;7.70;;;3.60;99.90;;;;;;5084204;28;20419;-67
2021/01/16 09:01:39;;;;;;;13.27;7.50;;;3.80;99.90;;;;;;5084169;28;20465;-67
2021/01/16 09:04:15;;;;;;;16.33;8.07;;;3.80;99.90;;;;;;5085764;28;20459;-67
2021/01/16 09:06:41;;;;;;;11.10;7.03;;;3.70;99.90;;;;;;5085449;28;20535;-67
2021/01/16 09:09:06;;;;;;;12.70;7.30;;;3.80;99.90;;;;;;5083213;28;20835;-67
2021/01/16 09:11:32;;;;;;;15.90;7.93;;;3.70;99.90;;;;;;5085052;28;20420;-68
2021/01/16 09:14:01;;;;;;;13.70;8.20;;;3.80;99.90;;;;;;5084798;28;20275;-69
2021/01/16 09:16:32;;;;;;;11.57;7.50;;;3.70;99.90;;;;;;5083419;28;20615;-67
2021/01/16 09:18:58;;;;;;;16.07;8.97;;;3.70;99.90;;;;;;5084159;28;20863;-67
2021/01/16 09:21:25;;;;;;;13.40;8.65;;;3.70;99.90;;;;;;5085067;28;20508;-69
2021/01/16 09:23:51;;;;;;;18.47;9.20;;;3.70;99.90;;;;;;5083611;28;20628;-69
2021/01/16 09:26:18;;;;;;;11.90;7.70;;;3.70;99.90;;;;;;5082916;28;20427;-69
2021/01/16 09:29:04;;;;;;;13.77;7.90;;;3.80;99.90;;;;;;5085599;28;20299;-68
2021/01/16 09:31:39;;;;;;;16.87;9.03;;;3.80;99.90;;;;;;5064609;28;20466;-68
2021/01/16 09:34:14;;;;;;;12.90;7.70;;;3.80;99.90;;;;;;5063922;28;20431;-68
2021/01/16 09:36:40;;;;;;;18.67;9.37;;;3.90;99.90;;;;;;5087121;28;20439;-68
2021/01/16 09:39:18;;;;;;;16.23;9.70;;;3.80;99.90;;;;;;5085719;28;20431;-68
2021/01/16 09:41:45;;;;;;;15.27;8.77;;;3.70;99.90;;;;;;5064240;28;20512;-68
2021/01/16 09:44:11;;;;;;;16.40;9.57;;;3.70;99.90;;;;;;5070974;28;20547;-67
2021/01/16 09:46:42;;;;;;;18.10;10.43;;;3.60;99.90;;;;;;5062728;28;20494;-68
2021/01/16 09:49:11;;;;;;;15.43;10.40;;;3.60;99.90;;;;;;5068512;28;20468;-68
2021/01/16 09:51:37;;;;;;;15.60;9.97;;;3.70;99.90;;;;;;5081982;28;20496;-67
2021/01/16 09:54:16;;;;;;;15.00;9.40;;;3.70;99.90;;;;;;5066777;28;20444;-67
2021/01/16 09:56:48;;;;;;;15.00;9.77;;;3.70;99.90;;;;;;5060321;28;20795;-67
2021/01/16 09:59:24;;;;;;;14.47;9.27;;;3.70;99.90;;;;;;5072972;28;20427;-67
2021/01/16 10:02:09;;;;;;;16.80;9.30;;;3.70;99.90;;;;;;5072960;28;20606;-67
2021/01/16 10:04:45;;;;;;;14.67;8.33;;;3.70;99.90;;;;;;5072407;28;20432;-67
2021/01/16 10:14:12;;;;;;;15.63;10.47;;;3.80;99.90;;;;;;5053992;28;20420;-67
2021/01/16 10:20:07;;;;;;;14.83;9.60;;;3.70;99.90;;;;;;5053841;28;20470;-67
2021/01/16 10:26:06;;;;;;;15.23;9.80;;;3.60;99.90;;;;;;5053730;28;20404;-68
2021/01/16 10:31:53;;;;;;;14.27;8.60;;;3.50;99.90;;;;;;5053676;28;20457;-68
2021/01/16 10:34:19;;;;;;;21.63;11.37;;;3.50;99.90;;;;;;5053578;28;20428;-68
2021/01/16 10:36:45;;;;;;;14.43;8.63;;;3.40;99.90;;;;;;5053565;28;20223;-69
2021/01/16 10:39:13;;;;;;;14.93;10.50;;;3.30;99.90;;;;;;5053762;28;20659;-69
2021/01/16 10:41:40;;;;;;;18.37;10.70;;;3.40;99.90;;;;;;5053778;28;20845;-68
2021/01/16 10:44:11;;;;;;;20.73;10.73;;;3.30;99.90;;;;;;5053682;28;20514;-68
2021/01/16 10:50:10;;;;;;;18.90;10.27;;;3.50;99.90;;;;;;5053333;28;20511;-68
2021/01/16 10:52:37;;;;;;;19.17;12.20;;;3.50;99.90;;;;;;5053684;28;20456;-68
2021/01/16 10:55:05;;;;;;;20.73;12.00;;;3.50;99.90;;;;;;5053286;28;20516;-68
2021/01/16 10:57:46;;;;;;;23.50;10.93;;;3.60;99.90;;;;;;5053474;28;20424;-68
2021/01/16 11:00:17;;;;;;;15.97;9.60;;;3.60;99.90;;;;;;5053560;28;20419;-68
2021/01/16 11:02:48;;;;;;;16.77;9.40;;;3.50;99.90;;;;;;5054101;28;20480;-68
2021/01/16 11:05:21;;;;;;;24.37;11.57;;;3.50;99.90;;;;;;5053308;28;20417;-68
2021/01/16 11:07:48;;;;;;;18.20;11.20;;;3.50;99.90;;;;;;5053189;28;20905;-68
2021/01/16 11:10:15;;;;;;;20.40;12.70;;;3.50;99.90;;;;;;5052943;28;20570;-68
2021/01/16 11:16:16;;;;;;;20.20;11.00;;;3.40;99.90;;;;;;5053031;28;20938;-68
2021/01/16 11:22:15;;;;;;;22.90;11.03;;;3.50;99.90;;;;;;5056912;28;20466;-68
2021/01/16 11:24:53;;;;;;;17.57;10.83;;;3.50;99.90;;;;;;5057308;28;20539;-69
2021/01/16 11:30:44;;;;;;;15.93;10.10;;;3.60;99.90;;;;;;5056991;28;20444;-69
2021/01/16 11:33:15;;;;;;;18.03;10.60;;;3.60;99.90;;;;;;5057160;28;20436;-69
2021/01/16 11:35:43;;;;;;;15.80;10.60;;;3.70;99.90;;;;;;5057073;28;20492;-68
2021/01/16 11:41:52;;;;;;;14.93;10.40;;;3.70;99.90;;;;;;5056851;28;20457;-66
2021/01/16 11:47:49;;;;;;;18.43;10.73;;;3.70;99.90;;;;;;5056894;28;20508;-68
2021/01/16 11:50:16;;;;;;;22.50;12.00;;;3.80;99.90;;;;;;5056851;28;20470;-68
2021/01/16 11:52:42;;;;;;;20.93;12.10;;;3.80;99.90;;;;;;5056809;28;20791;-68
2021/01/16 11:55:09;;;;;;;21.73;12.27;;;3.80;99.90;;;;;;5056682;28;20439;-68
2021/01/16 11:57:35;;;;;;;17.37;12.13;;;3.80;99.90;;;;;;5056365;28;20637;-68
2021/01/16 12:00:02;;;;;;;13.90;9.83;;;3.80;99.90;;;;;;5056379;28;20437;-68
2021/01/16 12:02:29;;;;;;;24.23;13.30;;;3.80;99.90;;;;;;5056205;28;20498;-68
2021/01/16 12:08:21;;;;;;;17.13;10.63;;;3.80;99.90;;;;;;5056350;28;20494;-67
2021/01/16 12:14:09;;;;;;;18.43;11.30;;;3.80;99.90;;;;;;5056150;28;20461;-67
2021/01/16 12:19:57;;;;;;;20.97;13.53;;;3.80;99.90;;;;;;5056112;28;20654;-68
2021/01/16 12:22:27;;;;;;;21.60;12.30;;;3.80;99.90;;;;;;5056051;28;20429;-67
2021/01/16 12:24:54;;;;;;;23.10;12.60;;;3.70;99.90;;;;;;5056211;28;20413;-68
2021/01/16 12:27:21;;;;;;;22.43;13.53;;;3.70;99.90;;;;;;5055980;28;20714;-68
2021/01/16 12:29:52;;;;;;;22.40;12.97;;;3.70;99.90;;;;;;5054900;28;20476;-67
2021/01/16 12:32:18;;;;;;;23.30;11.80;;;3.80;99.90;;;;;;5055999;28;20424;-68
2021/01/16 12:34:52;;;;;;;19.13;12.27;;;3.60;99.90;;;;;;5055710;28;20439;-68
2021/01/16 12:37:35;;;;;;;22.47;13.00;;;3.50;99.90;;;;;;5055977;28;20599;-67
2021/01/16 12:40:04;;;;;;;18.27;11.60;;;3.40;99.90;;;;;;5055565;28;20417;-67
2021/01/16 12:42:31;;;;;;;19.47;12.80;;;3.40;99.90;;;;;;5056191;28;20523;-67
2021/01/16 12:45:11;;;;;;;23.13;11.43;;;3.40;99.90;;;;;;5055544;28;20419;-67
2021/01/16 12:47:40;;;;;;;18.07;10.20;;;3.40;99.90;;;;;;5055867;28;20471;-68
2021/01/16 12:50:06;;;;;;;22.90;13.37;;;3.50;99.90;;;;;;5054083;28;20479;-67
2021/01/16 12:52:32;;;;;;;16.90;11.20;;;3.50;99.90;;;;;;5053698;28;20469;-67
2021/01/16 12:55:03;;;;;;;19.20;11.57;;;3.50;99.90;;;;;;5055331;28;20476;-68
2021/01/16 12:57:34;;;;;;;16.70;10.43;;;3.50;99.90;;;;;;5055709;28;20487;-69
2021/01/16 13:00:00;;;;;;;20.87;11.47;;;3.70;99.90;;;;;;5055335;28;20797;-68
2021/01/16 13:05:48;;;;;;;16.37;11.00;;;3.60;99.90;;;;;;5055221;28;20425;-67
2021/01/16 13:08:17;;;;;;;22.10;10.23;;;3.60;99.90;;;;;;5055015;28;20421;-66
2021/01/16 13:10:46;;;;;;;16.73;10.77;;;3.70;99.90;;;;;;5055009;28;20222;-67
2021/01/16 13:16:47;;;;;;;16.53;11.13;;;3.90;99.90;;;;;;5055328;28;20406;-67
2021/01/16 13:19:18;;;;;;;15.87;10.30;;;3.70;99.90;;;;;;5054953;28;20428;-66
2021/01/16 13:21:52;;;;;;;14.93;10.40;;;3.80;99.90;;;;;;5055133;28;20423;-67
2021/01/16 13:27:40;;;;;;;17.33;12.13;;;3.80;99.90;;;;;;5053849;28;20495;-67
2021/01/16 13:30:09;;;;;;;15.70;10.50;;;3.90;99.90;;;;;;5054962;28;20646;-67
2021/01/16 13:32:36;;;;;;;15.90;9.60;;;3.90;99.90;;;;;;5054930;28;20169;-67
2021/01/16 13:35:04;;;;;;;14.80;10.97;;;3.90;99.90;;;;;;5054853;28;20432;-67
2021/01/16 13:37:31;;;;;;;16.60;9.47;;;3.90;99.90;;;;;;5055069;28;20460;-67
2021/01/16 13:40:00;;;;;;;16.20;9.97;;;3.90;99.90;;;;;;5054623;28;20428;-67
2021/01/16 13:42:28;;;;;;;14.10;9.33;;;3.70;99.90;;;;;;5053765;28;20451;-67
2021/01/16 13:48:16;;;;;;;16.73;10.50;;;3.70;99.90;;;;;;5054405;28;20423;-67
2021/01/16 13:54:06;;;;;;;14.70;9.67;;;3.60;99.90;;;;;;5054572;28;20191;-67
2021/01/16 13:56:45;;;;;;;14.20;9.83;;;3.70;99.90;;;;;;5054110;28;20411;-67
2021/01/16 13:59:12;;;;;;;14.47;9.67;;;3.50;99.90;;;;;;5054404;28;20504;-67
2021/01/16 14:01:42;;;;;;;14.00;9.73;;;3.70;99.90;;;;;;5054303;28;20431;-68
2021/01/16 14:04:12;;;;;;;13.30;9.13;;;3.70;99.90;;;;;;5054352;28;20432;-67
2021/01/16 14:06:48;;;;;;;13.47;10.00;;;3.70;99.90;;;;;;5054876;28;20823;-67
2021/01/16 14:09:23;;;;;;;19.40;10.63;;;3.70;99.90;;;;;;5053841;28;20994;-67
2021/01/16 14:11:49;;;;;;;21.93;10.50;;;3.70;99.90;;;;;;5054231;28;20474;-67
2021/01/16 14:14:35;;;;;;;16.53;10.77;;;3.80;99.90;;;;;;5054155;28;20425;-68
2021/01/16 14:20:35;;;;;;;14.93;10.40;;;3.80;99.90;;;;;;5053850;28;20928;-68
2021/01/16 14:23:02;;;;;;;19.37;11.47;;;3.80;99.90;;;;;;5053794;28;20931;-68
2021/01/16 14:25:30;;;;;;;17.00;10.00;;;3.70;99.90;;;;;;5054008;28;20486;-68
2021/01/16 14:27:58;;;;;;;17.80;12.33;;;3.80;99.90;;;;;;5053904;28;20476;-68
2021/01/16 14:30:35;;;;;;;17.53;11.13;;;3.80;99.90;;;;;;5053854;28;20473;-68
2021/01/16 14:33:09;;;;;;;17.10;11.33;;;3.80;99.90;;;;;;5053641;28;20438;-68
2021/01/16 14:35:39;;;;;;;17.30;11.30;;;3.80;99.90;;;;;;5053876;28;20417;-69
2021/01/16 14:38:08;;;;;;;19.53;11.77;;;3.80;99.90;;;;;;5053891;28;20408;-68
2021/01/16 14:40:37;;;;;;;19.20;11.80;;;3.80;99.90;;;;;;5053473;28;20435;-68
2021/01/16 14:43:04;;;;;;;18.07;11.07;;;3.80;99.90;;;;;;5053728;28;20417;-68
2021/01/16 14:45:29;;;;;;;18.77;11.50;;;3.80;99.90;;;;;;5053658;28;20426;-69
2021/01/16 14:48:09;;;;;;;19.00;12.00;;;3.90;99.90;;;;;;5053667;28;20782;-69
2021/01/16 14:50:35;;;;;;;18.65;11.27;;;3.80;99.90;;;;;;5053502;28;20431;-68
2021/01/16 14:53:01;;;;;;;20.50;13.88;;;3.90;99.90;;;;;;5052229;28;20428;-68
2021/01/16 14:59:03;;;;;;;16.50;10.80;;;4.30;99.90;;;;;;5053346;28;20409;-67
2021/01/16 15:01:39;;;;;;;17.63;11.10;;;4.20;99.90;;;;;;5053586;28;20409;-67
2021/01/16 15:04:05;;;;;;;19.17;10.57;;;4.20;99.90;;;;;;5053640;28;20428;-67
2021/01/16 15:06:54;;;;;;;18.60;11.77;;;4.10;99.90;;;;;;5053250;28;20421;-67
2021/01/16 15:09:40;;;;;;;14.77;11.60;;;4.10;99.90;;;;;;5053188;28;20455;-67
2021/01/16 15:12:08;;;;;;;17.10;12.03;;;4.10;99.90;;;;;;5053389;28;20412;-67
2021/01/16 15:14:39;;;;;;;18.23;11.50;;;4.00;99.90;;;;;;5053061;28;20429;-67
2021/01/16 15:17:07;;;;;;;20.90;12.30;;;4.00;99.90;;;;;;5053342;28;20413;-67
2021/01/16 15:19:33;;;;;;;22.03;13.43;;;3.90;99.90;;;;;;5053362;28;20836;-67
2021/01/16 15:22:06;;;;;;;19.90;12.70;;;4.10;99.90;;;;;;5053377;28;20790;-67
2021/01/16 15:24:32;;;;;;;17.43;11.27;;;4.00;99.90;;;;;;5053387;28;20444;-67
2021/01/16 15:26:58;;;;;;;20.70;13.48;;;3.90;99.90;;;;;;5052913;28;20473;-67
2021/01/16 15:29:25;;;;;;;16.80;12.40;;;3.90;99.90;;;;;;5053517;28;20215;-68
2021/01/16 15:31:51;;;;;;;15.57;10.00;;;4.00;99.90;;;;;;5052960;28;20173;-67
2021/01/16 15:34:19;;;;;;;18.50;11.40;;;3.90;99.90;;;;;;5053219;28;20434;-67
2021/01/16 15:36:45;;;;;;;21.03;12.87;;;3.90;99.90;;;;;;5053040;28;20808;-67
2021/01/16 15:39:11;;;;;;;21.13;13.00;;;3.90;99.90;;;;;;5053128;28;20435;-67
2021/01/16 15:41:50;;;;;;;19.80;12.97;;;3.80;99.90;;;;;;5053179;28;20755;-68
2021/01/16 15:44:16;;;;;;;20.40;12.87;;;3.80;99.90;;;;;;5053245;28;20765;-68
2021/01/16 15:50:04;;;;;;;18.57;12.80;;;3.90;99.90;;;;;;5052778;28;20215;-68
2021/01/16 15:55:56;;;;;;;21.00;12.07;;;3.70;99.90;;;;;;5052760;28;20493;-68
2021/01/16 15:58:24;;;;;;;28.17;14.93;;;3.70;99.90;;;;;;5052982;28;20504;-68
2021/01/16 16:04:13;;;;;;;20.23;11.90;;;3.50;99.90;;;;;;5053371;28;20426;-68
2021/01/16 16:10:00;;;;;;;21.40;13.37;;;3.40;99.90;;;;;;5056126;28;20511;-68
2021/01/16 16:12:26;;;;;;;21.53;12.67;;;3.60;99.90;;;;;;5056519;28;20811;-68
2021/01/16 16:14:51;;;;;;;19.87;11.53;;;3.60;99.90;;;;;;5056254;28;20182;-69
2021/01/16 16:20:40;;;;;;;19.37;11.67;;;3.50;99.90;;;;;;5056194;28;20247;-69
2021/01/16 16:23:05;;;;;;;22.10;12.57;;;3.50;99.90;;;;;;5056036;28;21083;-69
2021/01/16 16:28:52;;;;;;;21.50;12.73;;;3.50;99.90;;;;;;5055956;28;20351;-68
2021/01/16 16:31:18;;;;;;;22.53;12.53;;;3.50;99.90;;;;;;5056187;28;20471;-68
2021/01/16 16:37:06;;;;;;;19.00;10.77;;;3.50;99.90;;;;;;5055898;28;20674;-68
2021/01/16 16:39:31;;;;;;;19.50;12.57;;;3.50;99.90;;;;;;5055981;28;20424;-69
2021/01/16 16:41:57;;;;;;;16.63;11.77;;;3.70;99.90;;;;;;5055982;28;20177;-69
2021/01/16 16:44:22;;;;;;;18.03;12.40;;;3.70;99.90;;;;;;5055948;28;20187;-69
2021/01/16 16:46:48;;;;;;;19.53;12.00;;;3.70;99.90;;;;;;5055562;28;20182;-69
2021/01/16 16:49:13;;;;;;;20.03;13.43;;;3.50;99.90;;;;;;5055760;28;20672;-68
2021/01/16 16:55:05;;;;;;;16.93;12.37;;;3.30;99.90;;;;;;5055482;28;20158;-68
2021/01/16 16:57:34;;;;;;;21.30;13.40;;;3.50;99.90;;;;;;5055655;28;20502;-67
2021/01/16 16:59:59;;;;;;;18.50;12.00;;;3.40;99.90;;;;;;5055398;28;20417;-67
2021/01/16 17:05:47;;;;;;;24.83;13.33;;;3.20;99.90;;;;;;5055357;28;20289;-67
2021/01/16 17:08:12;;;;;;;22.30;12.73;;;3.40;99.90;;;;;;5055050;28;20900;-67
2021/01/16 17:14:00;;;;;;;19.47;10.77;;;3.40;99.90;;;;;;5055084;28;20738;-71
2021/01/16 17:16:25;;;;;;;18.00;11.03;;;3.50;99.90;;;;;;5054782;28;20453;-68
2021/01/16 17:18:51;;;;;;;15.57;11.20;;;3.40;99.90;;;;;;5055234;28;20202;-68
2021/01/16 17:21:16;;;;;;;20.23;11.30;;;3.40;99.90;;;;;;5054934;28;20174;-68
2021/01/16 17:27:04;;;;;;;23.23;11.40;;;3.30;99.90;;;;;;5054877;28;20200;-68
2021/01/16 17:29:30;;;;;;;17.50;11.77;;;3.30;99.90;;;;;;5055002;28;20473;-68
2021/01/16 17:31:55;;;;;;;21.93;14.00;;;3.30;99.90;;;;;;5054669;28;20584;-67
2021/01/16 17:37:42;;;;;;;20.40;10.47;;;3.20;99.90;;;;;;5054648;28;20248;-69
2021/01/16 17:40:08;;;;;;;18.23;11.10;;;3.20;99.90;;;;;;5054845;28;20827;-70
2021/01/16 17:42:36;;;;;;;15.53;10.80;;;3.30;99.90;;;;;;5054767;28;20172;-69
2021/01/16 17:48:23;;;;;;;18.87;10.80;;;3.30;99.90;;;;;;5054358;28;20412;-69
2021/01/16 17:50:49;;;;;;;15.13;10.87;;;3.30;99.90;;;;;;5054537;28;20431;-71
2021/01/16 17:56:36;;;;;;;17.20;9.97;;;3.20;99.90;;;;;;5054570;28;20176;-69
2021/01/16 17:59:06;;;;;;;12.83;9.20;;;3.10;99.90;;;;;;5054439;28;20428;-68
2021/01/16 18:01:43;;;;;;;14.50;9.60;;;3.20;99.90;;;;;;5054646;28;20583;-68
2021/01/16 18:07:30;;;;;;;14.13;9.67;;;3.10;99.90;;;;;;5054033;28;20465;-68
2021/01/16 18:09:56;;;;;;;12.93;8.30;;;3.10;99.90;;;;;;5053778;28;20486;-68
2021/01/16 18:12:22;;;;;;;17.07;9.77;;;3.10;99.90;;;;;;5054161;28;20570;-68
2021/01/16 18:14:48;;;;;;;10.80;6.80;;;3.00;99.90;;;;;;5054162;28;20427;-68
2021/01/16 18:20:35;;;;;;;11.37;7.83;;;3.00;99.90;;;;;;5053831;28;20409;-69
2021/01/16 18:23:01;;;;;;;12.57;8.30;;;3.10;99.90;;;;;;5054026;28;20424;-69
2021/01/16 18:25:26;;;;;;;12.40;8.30;;;3.20;99.90;;;;;;5053522;28;20171;-69
2021/01/16 18:27:52;;;;;;;11.87;9.00;;;3.30;99.90;;;;;;5053216;28;20234;-72
2021/01/16 18:33:39;;;;;;;12.23;7.70;;;3.20;99.90;;;;;;5053614;28;20576;-66
2021/01/16 18:39:27;;;;;;;10.73;7.00;;;3.10;99.90;;;;;;5053487;28;20167;-67
2021/01/16 18:45:15;;;;;;;12.03;7.90;;;3.20;99.90;;;;;;5053385;28;20185;-67
2021/01/16 18:51:02;;;;;;;8.10;6.43;;;2.70;99.90;;;;;;5053268;28;20430;-65
2021/01/16 18:53:28;;;;;;;11.90;7.87;;;2.80;99.90;;;;;;5053630;28;20505;-68
2021/01/16 18:55:54;;;;;;;9.67;6.53;;;2.70;99.90;;;;;;5053359;28;20181;-68
2021/01/16 18:58:21;;;;;;;12.07;8.10;;;2.90;99.90;;;;;;5053603;28;20423;-68
2021/01/16 19:00:47;;;;;;;13.10;7.43;;;2.90;99.90;;;;;;5053176;28;20421;-68
2021/01/16 19:06:36;;;;;;;10.37;6.97;;;2.80;99.90;;;;;;5053339;28;20917;-68
2021/01/16 19:16:18;;;;;;;10.50;7.53;;;2.90;99.90;;;;;;5053588;28;20413;-67
2021/01/16 19:22:05;;;;;;;11.60;7.77;;;2.70;99.90;;;;;;5053097;28;20205;-64
2021/01/16 19:24:34;;;;;;;10.90;8.57;;;2.60;99.90;;;;;;5053203;28;20930;-65
2021/01/16 19:27:01;;;;;;;12.70;7.53;;;2.60;99.90;;;;;;5053309;28;20567;-65
2021/01/16 19:29:28;;;;;;;11.83;7.83;;;2.60;99.90;;;;;;5052790;28;20583;-66
2021/01/16 19:31:54;;;;;;;17.43;9.23;;;2.50;99.90;;;;;;5053168;28;20417;-67